x

Half Moon Bay - 24nm Ssw Of San Francisco, Ca (46012) Wave Buoy

11:50pm - Mon 23rd Apr 2018 All times are PDT. -7 hours from GMT.

  • Sig Wave height 5.9ft
  • Swell Direction
  • Peak Period 12s
  • Average Period 8s
  • Wind
    4mph, 7mph gusts
  • Sea Temp 56°f
  • Air Temp 54°f
  • Sea Pressure 1016.7mb
  • Half Moon Bay - 24nm Ssw Of San Francisco, Ca
  • Half Moon Bay - 24nm Ssw Of San Francisco, Ca

More Historic Weather Station data

Upgrade to MSW Pro to gain access to the past 30 days of data for over 8000 Wavebouys and Weather Stations around the globe.

Join

Comparision Forecast

View Surf forecast
   
Mon 04/23 11:50pm 6ft 12s 8s 4 7 mph 1016.7mb 56f 54f
10:50pm 5.5ft 10s 8s 7 11 mph 1016.8mb 56f 54f
9:50pm 6ft 14s 8s 7 11 mph 1016.8mb 56f 55f
8:50pm 6ft 13s 8s 7 9 mph 1016.1mb 56f 54f
7:50pm 6ft 11s 8s 9 11 mph 1015.4mb 57f 54f
6:50pm 6ft 13s 8s 7 9 mph 1015.3mb 57f 55f
5:50pm 7ft 12s 9s 7 9 mph 1015.2mb 57f 55f
4:50pm 6.5ft 13s 9s 9 11 mph 1015.5mb 57f 55f
3:50pm 6.5ft 13s 8s 7 11 mph 1016mb 57f 55f
2:50pm 6.5ft 14s 8s 4 7 mph 1016.2mb 57f 55f
1:50pm 7ft 13s 8s 4 9 mph 1016.3mb 56f 54f
12:50pm 8ft 11s 8s 9 11 mph 1016.5mb 56f 54f
11:50am 8ft 14s 8s 7 11 mph 1016.8mb 56f 54f
10:50am 8ft 14s 8s 4 7 mph 1016.5mb 55f 54f
9:50am 7.5ft 13s 8s 9 11 mph 1016.1mb 55f 54f
8:50am 8ft 14s 8s 9 11 mph 1015.9mb 55f 53f
7:50am 7.5ft 14s 8s 11 16 mph 1015.4mb 54f 53f
6:50am 8ft 14s 8s 11 16 mph 1015mb 54f 53f
5:50am 8ft 14s 8s 11 13 mph 1014.2mb 54f 53f
4:50am 8ft 9s 8s 11 13 mph 1014.1mb 54f 53f
3:50am 8ft 10s 8s 13 16 mph 1013.9mb 54f 53f
2:50am 8.5ft 13s 8s 11 16 mph 1013.9mb 54f 53f
1:50am 8.5ft 14s 8s 13 16 mph 1014.2mb 54f 54f
12:50am 8ft 13s 8s 16 18 mph 1014.3mb 54f 54f
Sun 04/22 11:50pm 9ft 9s 8s 16 18 mph 1014.3mb 53f 54f
10:50pm 9ft 13s 8s 16 20 mph 1014.4mb 53f 54f
9:50pm 9.5ft 14s 8s 18 22 mph 1014.3mb 53f 54f
8:50pm 8.5ft 11s 7s 20 25 mph 1013.5mb 53f 54f
6:50pm 9.5ft 13s 8s 20 25 mph 1013.4mb 54f 55f
5:50pm 9ft 12s 8s 18 22 mph 1013.5mb 54f 55f
4:50pm 8.5ft 14s 7s 20 25 mph 1013.7mb 54f 54f
3:50pm 9ft 14s 8s 22 25 mph 1014.1mb 54f 54f
2:50pm 10ft 14s 8s 20 25 mph 1014.5mb 54f 54f
1:50pm 10ft 12s 8s 20 22 mph 1014.9mb 53f 53f
12:50pm 10ft 14s 8s 22 27 mph 1015.1mb 53f 53f
11:50am 10.5ft 14s 8s 18 20 mph 1015.3mb 53f 52f
10:50am 10ft 9s 8s 16 18 mph 1015.7mb 53f 52f
9:50am 11ft 10s 8s 16 18 mph 1015.9mb 53f 52f
8:50am 11ft 9s 8s 16 20 mph 1016.1mb 54f 52f
7:50am 11ft 10s 8s 18 20 mph 1016.1mb 53f 53f
6:50am 11ft 10s 8s 18 22 mph 1015.8mb 54f 53f
5:50am 10ft 11s 8s 18 20 mph 1015.7mb 53f 52f
4:50am 11ft 15s 8s 18 20 mph 1015.7mb 53f 53f
3:50am 10ft 11s 8s 18 20 mph 1016mb 53f 52f
2:50am 10ft 9s 8s 16 20 mph 1016.5mb 53f 53f
1:50am 9.5ft 9s 7s 20 25 mph 1016.9mb 53f 52f
12:50am 10ft 14s 7s 16 22 mph 1017.5mb 53f 53f
Sat 04/21 11:50pm 10ft 9s 7s 16 20 mph 1017.6mb 53f 53f
10:50pm 11ft 14s 8s 13 18 mph 1018.1mb 53f 53f
9:50pm 10ft 14s 8s 16 18 mph 1018.5mb 53f 53f
8:50pm 9ft 15s 7s 18 25 mph 1017.8mb 53f 53f
7:50pm 9.5ft 15s 8s 20 25 mph 1017.4mb 54f 54f
6:50pm 9.5ft 15s 7s 22 29 mph 1017.5mb 54f 54f
5:50pm 9ft 15s 8s 25 27 mph 1017.9mb 54f 54f
4:50pm 9ft 15s 8s 25 29 mph 1018.3mb 54f 54f
3:50pm 9.5ft 16s 8s 25 29 mph 1018.7mb 54f 54f
2:50pm 8ft 16s 7s 22 27 mph 1019.1mb 54f 54f
1:50pm 8ft 16s 8s 18 25 mph 1019.7mb 54f 53f
12:50pm 8ft 16s 7s 18 20 mph 1020mb 54f 53f
11:50am 8.5ft 16s 8s 18 20 mph 1020.5mb 55f 53f
10:50am 8.5ft 16s 7s 20 22 mph 1020.5mb 55f 53f
9:50am 9ft 16s 7s 20 25 mph 1020.5mb 54f 53f
8:50am 9ft 12s 7s 20 25 mph 1020.4mb 54f 53f
7:50am 9ft 12s 7s 18 22 mph 1020.4mb 54f 53f
6:50am 8.5ft 8s 7s 18 20 mph 1020mb 53f 53f
5:50am 8.5ft 16s 7s 18 22 mph 1020.2mb 53f 53f
4:50am 8.5ft 8s 7s 18 22 mph 1020.5mb 53f 53f
3:50am 8ft 17s 7s 20 25 mph 1020.9mb 53f 53f
2:50am 8ft 7s 6s 20 25 mph 1021.2mb 53f 53f
1:50am 8ft 8s 6s 20 25 mph 1021.9mb 53f 53f
12:50am 8.5ft 7s 6s 18 25 mph 1022.2mb 53f 53f
Fri 04/20 11:50pm 8.5ft 8s 6s 20 27 mph 1021.9mb 53f 54f
10:50pm 8.5ft 7s 6s 22 27 mph 1022.2mb 53f 54f
9:50pm 9ft 7s 6s 25 31 mph 1022mb 53f 54f
8:50pm 8.5ft 8s 6s 25 29 mph 1021.5mb 54f 54f
7:50pm 7.5ft 8s 6s 22 27 mph 1021.2mb 54f 54f
6:50pm 7ft 10s 6s 25 27 mph 1021mb 55f 54f
5:50pm 6.5ft 9s 6s 20 25 mph 1021.5mb 55f 54f
4:50pm 6.5ft 11s 6s 20 22 mph 1021.8mb 55f 54f
3:50pm 7ft 10s 6s 20 25 mph 1022mb 55f 53f
2:50pm 6ft 11s 6s 22 25 mph 1022.2mb 54f 53f
1:50pm 7ft 11s 7s 20 25 mph 1022.4mb 54f 53f
12:50pm 6.5ft 11s 7s 20 22 mph 1022.6mb 54f 53f
11:50am 6ft 11s 7s 18 20 mph 1022.8mb 54f 53f
10:50am 7ft 11s 7s 13 18 mph 1022.8mb 54f 53f
9:50am 7ft 11s 7s 16 18 mph 1022.5mb 54f 53f
8:50am 7ft 11s 7s 13 16 mph 1022.5mb 54f 53f